メインページ
METAR-TAF:

METAR-TAF

空港 :

中部国際空港

名古屋, 日本

緯度: 34-51-30N, 経度: 136-48-19E, 海抜: 5m

現時点の気象観測

当レポートは38分前の10:00(UTC)に作成
西の風 10kt
気温 16°C
湿度 100%
気圧 1006 hPa
視程10km以上
高度800ftの雲はほとんどない
高度1300ftの雲は散在している
高度3000ftの千切れ雲あり

METAR: RJGG 241000Z 26010KT 9999 FEW008 SCT013 BKN030 16/16 Q1006 TEMPO FM1130 FEW005 BKN013

時間: 19:38 (10:38 UTC)

予報

当レポートは2時間35分前の08:03(UTC)に作成
予報は24日の 08時(UTC)から 25日の 12時(UTC)まで有効
西/北西の風 10kt
視程: 6000m
高度800ftの雲はほとんどない
高度1500ftの千切れ雲あり
弱いにわか雨
24日の 08時(UTC)から 24日の 13時(UTC)まで一時的に
視程: 3000m
高度300ftの雲はほとんどない
高度500ftの千切れ雲あり
弱いにわか雨, 靄,

TAF: RJGG 240803Z 2408/2512 30010KT 6000 -SHRA FEW008 BKN015 TEMPO 2408/2413 3000 -SHRA BR FEW003 BKN005

4,000以上の空港の気象観測と天気予報(METAR報とTAF報)

利用可能な観測所は地図上に黄色い丸と赤い丸で示す。

丸の上にカーソルを重ねると観測所名を参照できる。

次にクリックすると気象観測と天気予報を参照できる。

マップの切り替え:黒色「×」印の緑ボタンをクリックして拡大、「-」印の緑ボタンをクリックして縮小、緑色の三角印をクリックして隣りの地図に切り替え


METAR-TAF: